sensor_id;sensor_type;location;lat;lon;timestamp;pressure;altitude;pressure_sealevel;temperature;humidity
43711;BME280;29309;42.682;23.372;2023-01-15T00:00:51;95621.34;;;4.65;77.86
43711;BME280;29309;42.682;23.372;2023-01-15T00:03:17;95615.56;;;4.71;77.22
43711;BME280;29309;42.682;23.372;2023-01-15T00:05:42;95617.28;;;4.66;77.82
43711;BME280;29309;42.682;23.372;2023-01-15T00:08:08;95611.06;;;4.66;77.50
43711;BME280;29309;42.682;23.372;2023-01-15T00:10:34;95611.06;;;4.66;77.45
43711;BME280;29309;42.682;23.372;2023-01-15T00:13:00;95616.72;;;4.68;77.49
43711;BME280;29309;42.682;23.372;2023-01-15T00:15:26;95611.78;;;4.66;77.34
43711;BME280;29309;42.682;23.372;2023-01-15T00:17:51;95605.56;;;4.66;77.44
43711;BME280;29309;42.682;23.372;2023-01-15T00:20:17;95612.91;;;4.63;77.55
43711;BME280;29309;42.682;23.372;2023-01-15T00:22:42;95613.09;;;4.65;77.89
43711;BME280;29309;42.682;23.372;2023-01-15T00:25:09;95615.25;;;4.67;77.53
43711;BME280;29309;42.682;23.372;2023-01-15T00:27:53;95613.22;;;4.67;77.79
43711;BME280;29309;42.682;23.372;2023-01-15T00:30:18;95613.97;;;4.68;77.31
43711;BME280;29309;42.682;23.372;2023-01-15T00:32:44;95619.78;;;4.72;77.18
43711;BME280;29309;42.682;23.372;2023-01-15T00:35:12;95617.59;;;4.70;77.37
43711;BME280;29309;42.682;23.372;2023-01-15T00:37:38;95621.66;;;4.69;77.53
43711;BME280;29309;42.682;23.372;2023-01-15T00:40:04;95616.88;;;4.70;77.17
43711;BME280;29309;42.682;23.372;2023-01-15T00:42:29;95616.47;;;4.73;76.80
43711;BME280;29309;42.682;23.372;2023-01-15T00:44:55;95616.28;;;4.71;76.75
43711;BME280;29309;42.682;23.372;2023-01-15T00:47:20;95609.50;;;4.72;76.53
43711;BME280;29309;42.682;23.372;2023-01-15T00:49:46;95600.38;;;4.70;76.64
43711;BME280;29309;42.682;23.372;2023-01-15T00:52:11;95597.53;;;4.77;75.80
43711;BME280;29309;42.682;23.372;2023-01-15T00:54:37;95597.47;;;4.68;76.45
43711;BME280;29309;42.682;23.372;2023-01-15T00:57:02;95604.16;;;4.74;76.04
43711;BME280;29309;42.682;23.372;2023-01-15T00:59:28;95597.03;;;4.71;76.10
43711;BME280;29309;42.682;23.372;2023-01-15T01:01:53;95608.03;;;4.71;76.17
43711;BME280;29309;42.682;23.372;2023-01-15T01:04:19;95616.88;;;4.70;76.08
43711;BME280;29309;42.682;23.372;2023-01-15T01:06:44;95614.13;;;4.70;75.94
43711;BME280;29309;42.682;23.372;2023-01-15T01:09:13;95606.59;;;4.70;75.74
43711;BME280;29309;42.682;23.372;2023-01-15T01:11:39;95607.31;;;4.71;75.80
43711;BME280;29309;42.682;23.372;2023-01-15T01:14:04;95601.81;;;4.71;76.47
43711;BME280;29309;42.682;23.372;2023-01-15T01:16:34;95601.81;;;4.71;76.12
43711;BME280;29309;42.682;23.372;2023-01-15T01:19:11;95602.72;;;4.73;76.04
43711;BME280;29309;42.682;23.372;2023-01-15T01:21:38;95605.28;;;4.71;76.13
43711;BME280;29309;42.682;23.372;2023-01-15T01:24:05;95602.53;;;4.71;75.82
43711;BME280;29309;42.682;23.372;2023-01-15T01:26:32;95599.66;;;4.69;75.73
43711;BME280;29309;42.682;23.372;2023-01-15T01:28:57;95608.78;;;4.72;75.91
43711;BME280;29309;42.682;23.372;2023-01-15T01:31:24;95606.19;;;4.74;75.96
43711;BME280;29309;42.682;23.372;2023-01-15T01:33:51;95597.78;;;4.72;75.53
43711;BME280;29309;42.682;23.372;2023-01-15T01:36:19;95595.59;;;4.70;76.01
43711;BME280;29309;42.682;23.372;2023-01-15T01:38:47;95585.31;;;4.71;76.11
43711;BME280;29309;42.682;23.372;2023-01-15T01:41:15;95588.66;;;4.69;76.27
43711;BME280;29309;42.682;23.372;2023-01-15T01:44:02;95598.09;;;4.76;75.48
43711;BME280;29309;42.682;23.372;2023-01-15T01:46:30;95597.63;;;4.70;75.87
43711;BME280;29309;42.682;23.372;2023-01-15T01:49:15;95591.41;;;4.69;75.90
43711;BME280;29309;42.682;23.372;2023-01-15T01:51:49;95594.88;;;4.70;75.73
43711;BME280;29309;42.682;23.372;2023-01-15T01:54:17;95590.34;;;4.65;76.33
43711;BME280;29309;42.682;23.372;2023-01-15T01:56:47;95592.59;;;4.76;75.62
43711;BME280;29309;42.682;23.372;2023-01-15T01:59:13;95590.81;;;4.71;75.45
43711;BME280;29309;42.682;23.372;2023-01-15T02:01:40;95591.72;;;4.73;75.17
43711;BME280;29309;42.682;23.372;2023-01-15T02:04:07;95594.88;;;4.70;75.34
43711;BME280;29309;42.682;23.372;2023-01-15T02:06:34;95587.19;;;4.68;75.66
43711;BME280;29309;42.682;23.372;2023-01-15T02:09:00;95589.63;;;4.64;75.42
43711;BME280;29309;42.682;23.372;2023-01-15T02:11:26;95584.13;;;4.64;75.73
43711;BME280;29309;42.682;23.372;2023-01-15T02:16:46;95584.84;;;4.65;75.55
43711;BME280;29309;42.682;23.372;2023-01-15T02:19:29;95591.81;;;4.66;75.33
43711;BME280;29309;42.682;23.372;2023-01-15T02:22:18;95579.34;;;4.65;75.19
43711;BME280;29309;42.682;23.372;2023-01-15T02:27:58;95580.50;;;4.62;74.83
43711;BME280;29309;42.682;23.372;2023-01-15T02:30:38;95590.50;;;4.67;74.49
43711;BME280;29309;42.682;23.372;2023-01-15T02:33:11;95586.00;;;4.62;74.51
43711;BME280;29309;42.682;23.372;2023-01-15T02:35:42;95581.22;;;4.62;75.15
43711;BME280;29309;42.682;23.372;2023-01-15T02:38:14;95581.69;;;4.68;74.33
43711;BME280;29309;42.682;23.372;2023-01-15T02:40:41;95578.06;;;4.66;74.16
43711;BME280;29309;42.682;23.372;2023-01-15T02:43:08;95585.00;;;4.67;73.88
43711;BME280;29309;42.682;23.372;2023-01-15T02:45:38;95577.47;;;4.67;73.83
43711;BME280;29309;42.682;23.372;2023-01-15T02:48:10;95568.81;;;4.71;73.53
43711;BME280;29309;42.682;23.372;2023-01-15T02:50:39;95571.09;;;4.65;73.64
43711;BME280;29309;42.682;23.372;2023-01-15T02:53:09;95578.63;;;4.64;74.22
43711;BME280;29309;42.682;23.372;2023-01-15T02:55:42;95577.47;;;4.67;73.82
43711;BME280;29309;42.682;23.372;2023-01-15T02:58:11;95575.47;;;4.68;74.43
43711;BME280;29309;42.682;23.372;2023-01-15T03:00:40;95574.16;;;4.69;74.37
43711;BME280;29309;42.682;23.372;2023-01-15T03:03:30;95580.53;;;4.71;73.87
43711;BME280;29309;42.682;23.372;2023-01-15T03:06:15;95580.72;;;4.73;73.62
43711;BME280;29309;42.682;23.372;2023-01-15T03:08:42;95579.25;;;4.72;73.67
43711;BME280;29309;42.682;23.372;2023-01-15T03:11:10;95585.16;;;4.69;73.61
43711;BME280;29309;42.682;23.372;2023-01-15T03:16:33;95584.53;;;4.61;73.79
43711;BME280;29309;42.682;23.372;2023-01-15T03:24:09;95584.72;;;4.63;73.73
43711;BME280;29309;42.682;23.372;2023-01-15T03:26:36;95588.88;;;4.64;73.33
43711;BME280;29309;42.682;23.372;2023-01-15T03:29:03;95579.22;;;4.63;73.33
43711;BME280;29309;42.682;23.372;2023-01-15T03:31:31;95576.69;;;4.57;73.49
43711;BME280;29309;42.682;23.372;2023-01-15T03:33:57;95576.69;;;4.57;73.87
43711;BME280;29309;42.682;23.372;2023-01-15T03:36:23;95577.56;;;4.60;73.85
43711;BME280;29309;42.682;23.372;2023-01-15T03:38:48;95579.84;;;4.54;73.92
43711;BME280;29309;42.682;23.372;2023-01-15T03:41:23;95584.63;;;4.53;74.42
43711;BME280;29309;42.682;23.372;2023-01-15T03:44:04;95581.06;;;4.60;73.83
43711;BME280;29309;42.682;23.372;2023-01-15T03:49:44;95588.53;;;4.50;74.39
43711;BME280;29309;42.682;23.372;2023-01-15T03:52:23;95584.31;;;4.49;74.87
43711;BME280;29309;42.682;23.372;2023-01-15T03:57:41;95587.78;;;4.50;75.23
43711;BME280;29309;42.682;23.372;2023-01-15T04:00:21;95574.78;;;4.50;75.03
43711;BME280;29309;42.682;23.372;2023-01-15T04:02:51;95589.66;;;4.47;74.91
43711;BME280;29309;42.682;23.372;2023-01-15T04:05:18;95580.69;;;4.46;74.69
43711;BME280;29309;42.682;23.372;2023-01-15T04:07:44;95584.16;;;4.47;75.36
43711;BME280;29309;42.682;23.372;2023-01-15T04:10:11;95576.47;;;4.45;75.53
43711;BME280;29309;42.682;23.372;2023-01-15T04:12:36;95581.41;;;4.47;75.21
43711;BME280;29309;42.682;23.372;2023-01-15T04:15:02;95571.88;;;4.48;75.47
43711;BME280;29309;42.682;23.372;2023-01-15T04:17:28;95574.03;;;4.50;75.47
43711;BME280;29309;42.682;23.372;2023-01-15T04:19:53;95578.41;;;4.53;75.43
43711;BME280;29309;42.682;23.372;2023-01-15T04:22:18;95572.91;;;4.53;75.12
43711;BME280;29309;42.682;23.372;2023-01-15T04:24:44;95570.88;;;4.53;75.56
43711;BME280;29309;42.682;23.372;2023-01-15T04:27:09;95582.06;;;4.55;75.23
43711;BME280;29309;42.682;23.372;2023-01-15T04:29:35;95582.19;;;4.57;74.94
43711;BME280;29309;42.682;23.372;2023-01-15T04:32:00;95580.75;;;4.56;75.11
43711;BME280;29309;42.682;23.372;2023-01-15T04:34:27;95587.69;;;4.57;74.82
43711;BME280;29309;42.682;23.372;2023-01-15T04:36:54;95579.31;;;4.55;74.95
43711;BME280;29309;42.682;23.372;2023-01-15T04:39:20;95595.06;;;4.55;74.82
43711;BME280;29309;42.682;23.372;2023-01-15T04:41:45;95587.38;;;4.53;75.12
43711;BME280;29309;42.682;23.372;2023-01-15T04:44:31;95591.03;;;4.56;75.17
43711;BME280;29309;42.682;23.372;2023-01-15T04:46:56;95583.47;;;4.56;75.15
43711;BME280;29309;42.682;23.372;2023-01-15T04:49:24;95588.09;;;4.54;75.05
43711;BME280;29309;42.682;23.372;2023-01-15T04:51:50;95587.38;;;4.53;74.83
43711;BME280;29309;42.682;23.372;2023-01-15T04:54:16;95587.97;;;4.52;74.32
43711;BME280;29309;42.682;23.372;2023-01-15T04:56:44;95590.72;;;4.52;74.27
43711;BME280;29309;42.682;23.372;2023-01-15T04:59:10;95596.94;;;4.52;74.29
43711;BME280;29309;42.682;23.372;2023-01-15T05:01:36;95595.06;;;4.55;74.07
43711;BME280;29309;42.682;23.372;2023-01-15T05:04:02;95596.22;;;4.52;74.10
43711;BME280;29309;42.682;23.372;2023-01-15T05:06:28;95602.13;;;4.48;74.39
43711;BME280;29309;42.682;23.372;2023-01-15T05:08:55;95593.28;;;4.50;74.31
43711;BME280;29309;42.682;23.372;2023-01-15T05:11:21;95598.47;;;4.45;74.47
43711;BME280;29309;42.682;23.372;2023-01-15T05:13:47;95594.28;;;4.44;74.51
43711;BME280;29309;42.682;23.372;2023-01-15T05:16:18;95598.16;;;4.41;74.46
43711;BME280;29309;42.682;23.372;2023-01-15T05:18:45;95589.19;;;4.41;74.47
43711;BME280;29309;42.682;23.372;2023-01-15T05:21:18;95598.00;;;4.39;74.84
43711;BME280;29309;42.682;23.372;2023-01-15T05:23:45;95596.72;;;4.40;74.78
43711;BME280;29309;42.682;23.372;2023-01-15T05:26:11;95599.59;;;4.42;74.56
43711;BME280;29309;42.682;23.372;2023-01-15T05:28:36;95597.03;;;4.44;74.34
43711;BME280;29309;42.682;23.372;2023-01-15T05:31:07;95600.66;;;4.47;74.53
43711;BME280;29309;42.682;23.372;2023-01-15T05:33:33;95594.44;;;4.46;74.91
43711;BME280;29309;42.682;23.372;2023-01-15T05:36:07;95598.22;;;4.51;74.77
43711;BME280;29309;42.682;23.372;2023-01-15T05:38:33;95586.50;;;4.51;74.75
43711;BME280;29309;42.682;23.372;2023-01-15T05:41:02;95590.72;;;4.52;74.21
43711;BME280;29309;42.682;23.372;2023-01-15T05:43:48;95581.00;;;4.51;74.39
43711;BME280;29309;42.682;23.372;2023-01-15T05:46:13;95594.91;;;4.53;74.09
43711;BME280;29309;42.682;23.372;2023-01-15T05:48:39;95594.19;;;4.52;73.48
43711;BME280;29309;42.682;23.372;2023-01-15T05:51:04;95596.22;;;4.52;73.61
43711;BME280;29309;42.682;23.372;2023-01-15T05:53:30;95605.00;;;4.50;73.30
43711;BME280;29309;42.682;23.372;2023-01-15T05:56:00;95601.72;;;4.52;73.56
43711;BME280;29309;42.682;23.372;2023-01-15T05:58:25;95601.84;;;4.54;73.56
43711;BME280;29309;42.682;23.372;2023-01-15T06:00:51;95609.53;;;4.55;73.06
43711;BME280;29309;42.682;23.372;2023-01-15T06:03:16;95603.47;;;4.57;72.27
43711;BME280;29309;42.682;23.372;2023-01-15T06:05:41;95604.78;;;4.56;72.01
43711;BME280;29309;42.682;23.372;2023-01-15T06:08:07;95600.72;;;4.57;71.92
43711;BME280;29309;42.682;23.372;2023-01-15T06:10:32;95602.03;;;4.56;71.56
43711;BME280;29309;42.682;23.372;2023-01-15T06:12:58;95606.78;;;4.55;71.77
43711;BME280;29309;42.682;23.372;2023-01-15T06:15:23;95603.88;;;4.53;71.80
43711;BME280;29309;42.682;23.372;2023-01-15T06:17:49;95600.72;;;4.57;71.62
43711;BME280;29309;42.682;23.372;2023-01-15T06:20:15;95604.50;;;4.61;71.12
43711;BME280;29309;42.682;23.372;2023-01-15T06:22:40;95598.28;;;4.61;70.74
43711;BME280;29309;42.682;23.372;2023-01-15T06:25:06;95598.28;;;4.61;71.19
43711;BME280;29309;42.682;23.372;2023-01-15T06:27:32;95600.47;;;4.62;71.04
43711;BME280;29309;42.682;23.372;2023-01-15T06:29:57;95600.63;;;4.64;70.80
43711;BME280;29309;42.682;23.372;2023-01-15T06:32:24;95602.09;;;4.65;70.72
43711;BME280;29309;42.682;23.372;2023-01-15T06:34:49;95596.00;;;4.67;70.40
43711;BME280;29309;42.682;23.372;2023-01-15T06:37:15;95590.66;;;4.69;70.40
43711;BME280;29309;42.682;23.372;2023-01-15T06:39:40;95592.13;;;4.70;70.40
43711;BME280;29309;42.682;23.372;2023-01-15T06:42:05;95603.28;;;4.72;70.68
43711;BME280;29309;42.682;23.372;2023-01-15T06:44:49;95594.63;;;4.75;70.25
43711;BME280;29309;42.682;23.372;2023-01-15T06:47:33;95610.88;;;4.81;70.11
43711;BME280;29309;42.682;23.372;2023-01-15T06:49:59;95601.63;;;4.86;70.87
43711;BME280;29309;42.682;23.372;2023-01-15T06:52:26;95597.25;;;4.83;71.32
43711;BME280;29309;42.682;23.372;2023-01-15T06:54:52;95603.31;;;4.81;72.20
43711;BME280;29309;42.682;23.372;2023-01-15T06:57:18;95593.31;;;4.76;72.95
43711;BME280;29309;42.682;23.372;2023-01-15T06:59:44;95606.03;;;4.72;73.61
43711;BME280;29309;42.682;23.372;2023-01-15T07:02:10;95610.66;;;4.69;74.28
43711;BME280;29309;42.682;23.372;2023-01-15T07:04:36;95607.41;;;4.63;75.49
43711;BME280;29309;42.682;23.372;2023-01-15T07:07:05;95595.63;;;4.53;76.28
43711;BME280;29309;42.682;23.372;2023-01-15T07:09:30;95597.91;;;4.47;77.73
43711;BME280;29309;42.682;23.372;2023-01-15T07:11:57;95597.84;;;4.37;78.97
43711;BME280;29309;42.682;23.372;2023-01-15T07:14:24;95606.97;;;4.40;78.94
43711;BME280;29309;42.682;23.372;2023-01-15T07:16:51;95603.22;;;4.45;79.02
43711;BME280;29309;42.682;23.372;2023-01-15T07:19:19;95602.25;;;4.50;78.90
43711;BME280;29309;42.682;23.372;2023-01-15T07:21:45;95600.56;;;4.55;79.23
43711;BME280;29309;42.682;23.372;2023-01-15T07:24:12;95597.00;;;4.62;79.07
43711;BME280;29309;42.682;23.372;2023-01-15T07:26:38;95607.16;;;4.69;78.56
43711;BME280;29309;42.682;23.372;2023-01-15T07:29:03;95610.38;;;4.75;78.17
43711;BME280;29309;42.682;23.372;2023-01-15T07:31:30;95615.63;;;4.80;78.42
43711;BME280;29309;42.682;23.372;2023-01-15T07:33:55;95611.34;;;4.87;78.13
43711;BME280;29309;42.682;23.372;2023-01-15T07:36:21;95608.06;;;4.98;77.40
43711;BME280;29309;42.682;23.372;2023-01-15T07:38:47;95609.41;;;5.07;77.16
43711;BME280;29309;42.682;23.372;2023-01-15T07:41:12;95608.16;;;5.17;76.94
43711;BME280;29309;42.682;23.372;2023-01-15T07:43:56;95612.25;;;5.26;76.20
43711;BME280;29309;42.682;23.372;2023-01-15T07:46:40;95614.88;;;5.33;75.73
43711;BME280;29309;42.682;23.372;2023-01-15T07:49:24;95612.75;;;5.41;75.57
43711;BME280;29309;42.682;23.372;2023-01-15T07:52:08;95611.91;;;5.58;74.01
43711;BME280;29309;42.682;23.372;2023-01-15T07:54:34;95610.03;;;5.61;74.29
43711;BME280;29309;42.682;23.372;2023-01-15T07:56:59;95611.69;;;5.73;74.16
43711;BME280;29309;42.682;23.372;2023-01-15T07:59:25;95607.84;;;5.86;73.45
43711;BME280;29309;42.682;23.372;2023-01-15T08:01:50;95611.16;;;5.94;72.95
43711;BME280;29309;42.682;23.372;2023-01-15T08:04:18;95601.16;;;6.08;73.21
43711;BME280;29309;42.682;23.372;2023-01-15T08:06:44;95610.47;;;6.22;71.66
43711;BME280;29309;42.682;23.372;2023-01-15T08:09:09;95601.31;;;6.49;71.16
43711;BME280;29309;42.682;23.372;2023-01-15T08:11:35;95605.53;;;6.69;68.88
43711;BME280;29309;42.682;23.372;2023-01-15T08:14:19;95610.13;;;6.85;67.95
43711;BME280;29309;42.682;23.372;2023-01-15T08:17:03;95616.06;;;7.01;66.98
43711;BME280;29309;42.682;23.372;2023-01-15T08:19:28;95607.94;;;6.93;67.31
43711;BME280;29309;42.682;23.372;2023-01-15T08:21:55;95619.28;;;6.88;67.45
43711;BME280;29309;42.682;23.372;2023-01-15T08:24:24;95619.28;;;6.88;66.29
43711;BME280;29309;42.682;23.372;2023-01-15T08:26:50;95625.84;;;6.83;66.76
43711;BME280;29309;42.682;23.372;2023-01-15T08:29:16;95618.72;;;6.70;67.15
43711;BME280;29309;42.682;23.372;2023-01-15T08:31:41;95627.59;;;6.69;66.74
43711;BME280;29309;42.682;23.372;2023-01-15T08:34:07;95625.28;;;6.56;66.91
43711;BME280;29309;42.682;23.372;2023-01-15T08:36:33;95628.63;;;6.54;68.02
43711;BME280;29309;42.682;23.372;2023-01-15T08:38:59;95618.19;;;6.43;69.79
43711;BME280;29309;42.682;23.372;2023-01-15T08:41:24;95622.97;;;6.42;67.97
43711;BME280;29309;42.682;23.372;2023-01-15T08:43:50;95618.00;;;6.41;67.78
43711;BME280;29309;42.682;23.372;2023-01-15T08:46:16;95622.09;;;6.30;67.69
43711;BME280;29309;42.682;23.372;2023-01-15T08:48:41;95622.22;;;6.23;68.69
43711;BME280;29309;42.682;23.372;2023-01-15T08:51:08;95617.00;;;6.27;68.29
43711;BME280;29309;42.682;23.372;2023-01-15T08:53:34;95618.75;;;6.32;68.03
43711;BME280;29309;42.682;23.372;2023-01-15T08:56:00;95611.63;;;6.38;66.91
43711;BME280;29309;42.682;23.372;2023-01-15T08:58:30;95618.44;;;6.37;66.07
43711;BME280;29309;42.682;23.372;2023-01-15T09:01:03;95614.97;;;6.37;66.63
43711;BME280;29309;42.682;23.372;2023-01-15T09:03:29;95615.25;;;6.41;67.27
43711;BME280;29309;42.682;23.372;2023-01-15T09:05:58;95619.16;;;6.48;66.76
43711;BME280;29309;42.682;23.372;2023-01-15T09:08:23;95614.09;;;6.54;65.77
43711;BME280;29309;42.682;23.372;2023-01-15T09:10:49;95617.75;;;6.47;66.08
43711;BME280;29309;42.682;23.372;2023-01-15T09:13:14;95614.38;;;6.48;65.87
43711;BME280;29309;42.682;23.372;2023-01-15T09:15:40;95614.97;;;6.37;66.07
43711;BME280;29309;42.682;23.372;2023-01-15T09:18:05;95607.59;;;6.39;65.46
43711;BME280;29309;42.682;23.372;2023-01-15T09:20:31;95606.00;;;6.36;65.68
43711;BME280;29309;42.682;23.372;2023-01-15T09:22:56;95601.78;;;6.35;65.69
43711;BME280;29309;42.682;23.372;2023-01-15T09:25:22;95604.66;;;6.37;66.21
43711;BME280;29309;42.682;23.372;2023-01-15T09:27:48;95604.97;;;6.41;66.28
43711;BME280;29309;42.682;23.372;2023-01-15T09:30:21;95595.69;;;6.47;67.09
43711;BME280;29309;42.682;23.372;2023-01-15T09:32:47;95592.91;;;6.47;66.30
43711;BME280;29309;42.682;23.372;2023-01-15T09:35:13;95586.94;;;6.40;65.24
43711;BME280;29309;42.682;23.372;2023-01-15T09:37:39;95593.03;;;6.29;65.54
43711;BME280;29309;42.682;23.372;2023-01-15T09:40:06;95582.75;;;6.30;64.81
43711;BME280;29309;42.682;23.372;2023-01-15T09:42:44;95582.19;;;6.31;64.84
43711;BME280;29309;42.682;23.372;2023-01-15T09:45:25;95583.63;;;6.32;65.92
43711;BME280;29309;42.682;23.372;2023-01-15T09:50:29;95565.06;;;6.33;66.46
43711;BME280;29309;42.682;23.372;2023-01-15T09:53:16;95568.41;;;6.31;66.57
43711;BME280;29309;42.682;23.372;2023-01-15T09:55:48;95561.28;;;6.28;66.20
43711;BME280;29309;42.682;23.372;2023-01-15T09:58:19;95556.50;;;6.29;66.20
43711;BME280;29309;42.682;23.372;2023-01-15T10:00:48;95547.19;;;6.34;66.16
43711;BME280;29309;42.682;23.372;2023-01-15T10:03:39;95541.13;;;6.35;66.73
43711;BME280;29309;42.682;23.372;2023-01-15T10:08:44;95534.72;;;6.42;64.34
43711;BME280;29309;42.682;23.372;2023-01-15T10:13:49;95520.19;;;6.52;63.94
43711;BME280;29309;42.682;23.372;2023-01-15T10:16:28;95516.41;;;6.57;63.83
43711;BME280;29309;42.682;23.372;2023-01-15T10:18:56;95513.66;;;6.57;64.46
43711;BME280;29309;42.682;23.372;2023-01-15T10:24:17;95505.34;;;6.66;64.24
43711;BME280;29309;42.682;23.372;2023-01-15T10:26:46;95500.25;;;6.72;63.85
43711;BME280;29309;42.682;23.372;2023-01-15T10:32:10;95493.03;;;6.98;64.31
43711;BME280;29309;42.682;23.372;2023-01-15T10:34:53;95494.34;;;6.97;63.84
43711;BME280;29309;42.682;23.372;2023-01-15T10:37:32;95485.16;;;7.04;63.99
43711;BME280;29309;42.682;23.372;2023-01-15T10:43:23;95470.34;;;7.00;65.79
43711;BME280;29309;42.682;23.372;2023-01-15T10:51:27;95459.06;;;7.17;64.38
43711;BME280;29309;42.682;23.372;2023-01-15T10:59:19;95452.03;;;7.04;64.45
43711;BME280;29309;42.682;23.372;2023-01-15T11:01:48;95438.50;;;7.08;64.39
43711;BME280;29309;42.682;23.372;2023-01-15T11:04:15;95436.13;;;7.14;63.80
43711;BME280;29309;42.682;23.372;2023-01-15T11:06:41;95436.69;;;7.22;63.36
43711;BME280;29309;42.682;23.372;2023-01-15T11:09:15;95433.59;;;7.28;62.59
43711;BME280;29309;42.682;23.372;2023-01-15T11:11:48;95435.69;;;7.39;61.66
43711;BME280;29309;42.682;23.372;2023-01-15T11:17:18;95419.38;;;7.64;60.68
43711;BME280;29309;42.682;23.372;2023-01-15T11:20:13;95419.78;;;7.82;60.12
43711;BME280;29309;42.682;23.372;2023-01-15T11:22:42;95407.19;;;7.79;58.93
43711;BME280;29309;42.682;23.372;2023-01-15T11:25:08;95406.28;;;7.65;59.22
43711;BME280;29309;42.682;23.372;2023-01-15T11:27:36;95396.47;;;7.73;60.68
43711;BME280;29309;42.682;23.372;2023-01-15T11:30:05;95399.03;;;7.92;60.39
43711;BME280;29309;42.682;23.372;2023-01-15T11:32:55;95401.72;;;8.02;59.21
43711;BME280;29309;42.682;23.372;2023-01-15T11:35:21;95395.38;;;8.11;59.31
43711;BME280;29309;42.682;23.372;2023-01-15T11:37:46;95392.09;;;8.03;58.97
43711;BME280;29309;42.682;23.372;2023-01-15T11:40:21;95393.19;;;7.98;59.32
43711;BME280;29309;42.682;23.372;2023-01-15T11:42:49;95383.19;;;7.93;59.56
43711;BME280;29309;42.682;23.372;2023-01-15T11:45:34;95384.06;;;7.96;59.52
43711;BME280;29309;42.682;23.372;2023-01-15T11:48:28;95378.06;;;7.99;59.94
43711;BME280;29309;42.682;23.372;2023-01-15T11:51:16;95374.59;;;8.22;59.45
43711;BME280;29309;42.682;23.372;2023-01-15T11:53:48;95371.03;;;8.31;58.80
43711;BME280;29309;42.682;23.372;2023-01-15T11:56:17;95364.41;;;8.24;59.37
43711;BME280;29309;42.682;23.372;2023-01-15T11:58:49;95361.91;;;8.40;59.08
43711;BME280;29309;42.682;23.372;2023-01-15T12:03:54;95369.50;;;8.86;57.89
43711;BME280;29309;42.682;23.372;2023-01-15T12:06:21;95355.75;;;8.88;57.38
43711;BME280;29309;42.682;23.372;2023-01-15T12:08:50;95356.44;;;9.12;57.98
43711;BME280;29309;42.682;23.372;2023-01-15T12:26:26;95339.63;;;9.70;53.09
43711;BME280;29309;42.682;23.372;2023-01-15T12:28:28;95336.69;;;9.79;53.64
43711;BME280;29309;42.682;23.372;2023-01-15T12:36:01;95329.03;;;9.04;55.71
43711;BME280;29309;42.682;23.372;2023-01-15T12:38:53;95332.16;;;9.35;55.22
43711;BME280;29309;42.682;23.372;2023-01-15T12:41:25;95328.66;;;9.72;53.74
43711;BME280;29309;42.682;23.372;2023-01-15T12:45:01;95322.03;;;10.16;52.53
43711;BME280;29309;42.682;23.372;2023-01-15T12:47:24;95331.72;;;10.28;50.98
43711;BME280;29309;42.682;23.372;2023-01-15T12:50:21;95325.81;;;10.09;52.40
43711;BME280;29309;42.682;23.372;2023-01-15T12:53:00;95323.47;;;9.66;53.53
43711;BME280;29309;42.682;23.372;2023-01-15T12:55:30;95322.34;;;9.58;53.21
43711;BME280;29309;42.682;23.372;2023-01-15T12:57:59;95312.19;;;8.88;54.98
43711;BME280;29309;42.682;23.372;2023-01-15T13:00:29;95314.03;;;8.49;56.33
43711;BME280;29309;42.682;23.372;2023-01-15T13:03:14;95302.22;;;8.25;56.77
43711;BME280;29309;42.682;23.372;2023-01-15T13:10:52;95297.59;;;7.72;59.39
43711;BME280;29309;42.682;23.372;2023-01-15T13:13:23;95301.88;;;7.52;60.33
43711;BME280;29309;42.682;23.372;2023-01-15T13:16:23;95297.13;;;7.42;61.14
43711;BME280;29309;42.682;23.372;2023-01-15T13:21:37;95294.16;;;7.17;62.15
43711;BME280;29309;42.682;23.372;2023-01-15T13:30:04;95279.97;;;7.11;63.78
43711;BME280;29309;42.682;23.372;2023-01-15T13:32:38;95271.06;;;7.01;64.26
43711;BME280;29309;42.682;23.372;2023-01-15T13:35:36;95264.19;;;7.02;65.05
43711;BME280;29309;42.682;23.372;2023-01-15T13:38:12;95274.28;;;6.98;64.35
43711;BME280;29309;42.682;23.372;2023-01-15T13:40:42;95268.81;;;6.88;63.90
43711;BME280;29309;42.682;23.372;2023-01-15T13:43:36;95272.19;;;6.86;64.83
43711;BME280;29309;42.682;23.372;2023-01-15T13:46:18;95263.50;;;6.80;64.70
43711;BME280;29309;42.682;23.372;2023-01-15T13:48:47;95268.16;;;6.78;64.58
43711;BME280;29309;42.682;23.372;2023-01-15T13:51:29;95265.88;;;6.74;65.36
43711;BME280;29309;42.682;23.372;2023-01-15T13:53:57;95266.59;;;6.75;64.88
43711;BME280;29309;42.682;23.372;2023-01-15T13:56:28;95269.34;;;6.75;64.25
43711;BME280;29309;42.682;23.372;2023-01-15T13:58:59;95263.47;;;6.69;64.67
43711;BME280;29309;42.682;23.372;2023-01-15T14:06:50;95257.78;;;6.67;64.33
43711;BME280;29309;42.682;23.372;2023-01-15T14:22:55;95257.03;;;6.55;65.46
43711;BME280;29309;42.682;23.372;2023-01-15T14:26:01;95249.91;;;6.52;65.52
43711;BME280;29309;42.682;23.372;2023-01-15T14:31:31;95254.44;;;6.47;65.57
43711;BME280;29309;42.682;23.372;2023-01-15T14:34:21;95256.78;;;6.41;66.08
43711;BME280;29309;42.682;23.372;2023-01-15T14:42:33;95254.38;;;6.35;66.59
43711;BME280;29309;42.682;23.372;2023-01-15T14:45:25;95256.00;;;6.29;67.26
43711;BME280;29309;42.682;23.372;2023-01-15T14:47:57;95249.34;;;6.22;67.70
43711;BME280;29309;42.682;23.372;2023-01-15T14:50:41;95252.56;;;6.19;68.03
43711;BME280;29309;42.682;23.372;2023-01-15T14:55:49;95262.19;;;6.08;68.88
43711;BME280;29309;42.682;23.372;2023-01-15T14:58:41;95250.63;;;6.00;69.30
43711;BME280;29309;42.682;23.372;2023-01-15T15:01:16;95248.34;;;5.97;69.46
43711;BME280;29309;42.682;23.372;2023-01-15T15:04:03;95255.44;;;5.90;70.13
43711;BME280;29309;42.682;23.372;2023-01-15T15:06:32;95254.00;;;5.79;70.33
43711;BME280;29309;42.682;23.372;2023-01-15T15:09:03;95255.78;;;5.75;70.90
43711;BME280;29309;42.682;23.372;2023-01-15T15:11:48;95256.06;;;5.69;71.42
43711;BME280;29309;42.682;23.372;2023-01-15T15:14:36;95270.75;;;5.62;71.55